createdAt,value
2018-06-29T00:00:28.183Z,19.48
2018-06-29T00:01:28.138Z,19.44
2018-06-29T00:02:28.100Z,19.47
2018-06-29T00:03:28.056Z,19.39
2018-06-29T00:04:36.719Z,19.43
2018-06-29T00:05:28.018Z,19.37
2018-06-29T00:06:28.010Z,19.26
2018-06-29T00:07:27.955Z,19.25
2018-06-29T00:08:28.668Z,19.25
2018-06-29T00:09:27.876Z,19.31
2018-06-29T00:10:27.797Z,19.29
2018-06-29T00:11:27.780Z,19.16
2018-06-29T00:12:27.729Z,19.19
2018-06-29T00:13:27.714Z,19.18
2018-06-29T00:14:27.690Z,19.08
2018-06-29T00:15:27.637Z,19.08
2018-06-29T00:16:27.624Z,18.94
2018-06-29T00:17:27.567Z,19.02
2018-06-29T00:18:27.511Z,18.94
2018-06-29T00:19:27.515Z,18.85
2018-06-29T00:20:27.463Z,18.91
2018-06-29T00:21:27.422Z,18.84
2018-06-29T00:22:27.361Z,18.76
2018-06-29T00:23:27.347Z,18.72
2018-06-29T00:24:27.323Z,18.67
2018-06-29T00:25:27.286Z,18.70
2018-06-29T00:26:27.225Z,18.69
2018-06-29T00:27:27.214Z,18.75
2018-06-29T00:28:37.742Z,18.69
2018-06-29T00:29:27.225Z,18.67
2018-06-29T00:30:27.074Z,18.62
2018-06-29T00:31:27.078Z,18.65
2018-06-29T00:32:27.288Z,18.65
2018-06-29T00:33:26.960Z,18.60
2018-06-29T00:34:26.938Z,18.51
2018-06-29T00:35:26.891Z,18.42
2018-06-29T00:36:26.866Z,18.45
2018-06-29T00:37:26.826Z,18.42
2018-06-29T00:38:26.775Z,18.35
2018-06-29T00:39:26.757Z,18.35
2018-06-29T00:40:26.744Z,18.29
2018-06-29T00:41:26.700Z,18.23
2018-06-29T00:42:26.823Z,18.20
2018-06-29T00:43:26.593Z,18.10
2018-06-29T00:44:26.559Z,18.05
2018-06-29T00:45:26.576Z,18.03
2018-06-29T00:46:26.481Z,18.07
2018-06-29T00:47:26.463Z,18.05
2018-06-29T00:48:26.397Z,18.10
2018-06-29T00:49:26.389Z,18.02
2018-06-29T00:50:26.363Z,18.03
2018-06-29T00:51:26.321Z,17.99
2018-06-29T00:52:26.258Z,17.96
2018-06-29T00:53:26.219Z,17.90
2018-06-29T00:54:27.040Z,17.90
2018-06-29T00:55:26.136Z,17.93
2018-06-29T00:56:26.131Z,17.92
2018-06-29T00:57:26.085Z,17.92
2018-06-29T00:58:26.061Z,17.87
2018-06-29T00:59:25.993Z,17.82
2018-06-29T01:00:25.984Z,17.72
2018-06-29T01:01:25.949Z,17.70
2018-06-29T01:02:25.876Z,17.64
2018-06-29T01:03:25.848Z,17.66
2018-06-29T01:04:25.818Z,17.71
2018-06-29T01:05:25.812Z,17.62
2018-06-29T01:06:25.758Z,17.62
2018-06-29T01:07:25.706Z,17.63
2018-06-29T01:08:25.655Z,17.59
2018-06-29T01:09:25.639Z,17.68
2018-06-29T01:10:25.578Z,17.72
2018-06-29T01:11:25.556Z,17.56
2018-06-29T01:12:25.541Z,17.68
2018-06-29T01:13:25.480Z,17.66
2018-06-29T01:14:25.485Z,17.54
2018-06-29T01:15:25.406Z,17.55
2018-06-29T01:16:25.375Z,17.55
2018-06-29T01:17:25.320Z,17.63
2018-06-29T01:18:25.310Z,17.55
2018-06-29T01:19:25.281Z,17.55
2018-06-29T01:20:25.199Z,17.70
2018-06-29T01:21:25.198Z,17.68
2018-06-29T01:22:25.168Z,17.66
2018-06-29T01:23:25.100Z,17.64
2018-06-29T01:24:25.058Z,17.58
2018-06-29T01:25:25.008Z,17.71
2018-06-29T01:26:24.966Z,17.59
2018-06-29T01:27:24.988Z,17.68
2018-06-29T01:28:24.921Z,17.52
2018-06-29T01:29:24.875Z,17.52
2018-06-29T01:30:24.824Z,17.46
2018-06-29T01:31:24.857Z,17.44
2018-06-29T01:32:24.754Z,17.49
2018-06-29T01:33:24.746Z,17.46
2018-06-29T01:34:24.680Z,17.41
2018-06-29T01:35:24.671Z,17.44
2018-06-29T01:36:24.610Z,17.37
2018-06-29T01:37:24.627Z,17.31
2018-06-29T01:38:24.521Z,17.30
2018-06-29T01:39:24.481Z,17.15
2018-06-29T01:40:24.479Z,17.16
2018-06-29T01:41:24.448Z,17.16
2018-06-29T01:42:24.408Z,17.06
2018-06-29T01:43:24.353Z,16.97
2018-06-29T01:44:24.317Z,17.04
2018-06-29T01:45:24.270Z,17.01
2018-06-29T01:46:24.231Z,16.88
2018-06-29T01:47:24.213Z,16.96
2018-06-29T01:48:24.209Z,16.85
2018-06-29T01:49:24.123Z,16.76
2018-06-29T01:50:24.085Z,16.71
2018-06-29T01:51:24.069Z,16.71
2018-06-29T01:52:24.061Z,16.71
2018-06-29T01:53:23.986Z,16.61
2018-06-29T01:54:23.932Z,16.63
2018-06-29T01:55:23.898Z,16.56
2018-06-29T01:56:23.854Z,16.63
2018-06-29T01:57:23.826Z,16.63
2018-06-29T01:58:23.835Z,16.60
2018-06-29T01:59:23.766Z,16.68
2018-06-29T02:00:23.710Z,16.64
2018-06-29T02:01:23.695Z,16.67
2018-06-29T02:02:23.666Z,16.63
2018-06-29T02:03:34.147Z,16.61
2018-06-29T02:04:23.574Z,16.67
2018-06-29T02:05:23.526Z,16.70
2018-06-29T02:06:24.045Z,16.71
2018-06-29T02:07:23.440Z,16.75
2018-06-29T02:08:23.427Z,16.79
2018-06-29T02:09:23.385Z,16.75
2018-06-29T02:10:23.336Z,16.79
2018-06-29T02:11:23.310Z,16.85
2018-06-29T02:12:23.276Z,16.83
2018-06-29T02:13:23.228Z,16.86
2018-06-29T02:14:23.213Z,16.89
2018-06-29T02:15:23.167Z,16.98
2018-06-29T02:16:23.098Z,17.08
2018-06-29T02:17:23.051Z,17.00
2018-06-29T02:18:23.035Z,17.00
2018-06-29T02:19:23.023Z,17.00
2018-06-29T02:20:22.975Z,17.04
2018-06-29T02:21:22.904Z,17.00
2018-06-29T02:22:22.875Z,17.12
2018-06-29T02:23:22.840Z,17.12
2018-06-29T02:24:22.809Z,17.12
2018-06-29T02:25:22.802Z,17.06
2018-06-29T02:26:22.741Z,17.08
2018-06-29T02:27:22.699Z,17.15
2018-06-29T02:28:22.652Z,17.21
2018-06-29T02:29:22.621Z,17.15
2018-06-29T02:30:22.707Z,17.23
2018-06-29T02:31:22.549Z,17.19
2018-06-29T02:32:22.544Z,17.15
2018-06-29T02:33:22.466Z,17.18
2018-06-29T02:34:22.427Z,17.22
2018-06-29T02:35:22.389Z,17.30
2018-06-29T02:36:22.371Z,17.28
2018-06-29T02:37:22.313Z,17.30
2018-06-29T02:38:22.304Z,17.33
2018-06-29T02:39:22.251Z,17.40
2018-06-29T02:40:22.225Z,17.38
2018-06-29T02:41:22.166Z,17.28
2018-06-29T02:42:22.169Z,17.31
2018-06-29T02:43:22.104Z,17.28
2018-06-29T02:44:22.041Z,17.28
2018-06-29T02:45:22.029Z,17.34
2018-06-29T02:46:21.970Z,17.30
2018-06-29T02:47:21.934Z,17.30
2018-06-29T02:48:21.903Z,17.31
2018-06-29T02:49:21.849Z,17.31
2018-06-29T02:50:21.820Z,17.30
2018-06-29T02:51:32.335Z,17.40
2018-06-29T02:52:21.742Z,17.33
2018-06-29T02:53:21.699Z,17.36
2018-06-29T02:54:21.686Z,17.36
2018-06-29T02:55:21.645Z,17.33
2018-06-29T02:56:21.623Z,17.28
2018-06-29T02:57:21.548Z,17.33
2018-06-29T02:58:21.504Z,17.30
2018-06-29T02:59:21.465Z,17.31
2018-06-29T03:00:21.433Z,17.33
2018-06-29T03:01:21.421Z,17.43
2018-06-29T03:02:21.389Z,17.36
2018-06-29T03:03:21.317Z,17.46
2018-06-29T03:04:21.302Z,17.48
2018-06-29T03:05:21.277Z,17.48
2018-06-29T03:06:21.222Z,17.44
2018-06-29T03:07:21.217Z,17.31
2018-06-29T03:08:21.143Z,17.33
2018-06-29T03:09:21.106Z,17.25
2018-06-29T03:10:21.053Z,17.23
2018-06-29T03:11:21.047Z,17.11
2018-06-29T03:12:21.016Z,17.03
2018-06-29T03:13:20.947Z,16.98
2018-06-29T03:14:20.892Z,16.89
2018-06-29T03:15:31.982Z,16.76
2018-06-29T03:16:20.858Z,16.75
2018-06-29T03:17:20.897Z,16.75
2018-06-29T03:18:20.752Z,16.67
2018-06-29T03:19:20.707Z,16.63
2018-06-29T03:20:20.676Z,16.49
2018-06-29T03:21:20.633Z,16.39
2018-06-29T03:22:20.617Z,16.34
2018-06-29T03:23:20.625Z,16.38
2018-06-29T03:24:20.518Z,16.33
2018-06-29T03:25:20.585Z,16.23
2018-06-29T03:26:20.454Z,16.25
2018-06-29T03:27:20.422Z,16.27
2018-06-29T03:28:20.410Z,16.28
2018-06-29T03:29:20.354Z,16.24
2018-06-29T03:30:20.292Z,16.21
2018-06-29T03:31:20.255Z,16.15
2018-06-29T03:32:20.242Z,16.05
2018-06-29T03:33:20.200Z,16.15
2018-06-29T03:34:20.157Z,16.20
2018-06-29T03:35:20.112Z,16.17
2018-06-29T03:36:20.074Z,16.15
2018-06-29T03:37:20.036Z,16.14
2018-06-29T03:38:19.982Z,16.07
2018-06-29T03:39:30.557Z,16.05
2018-06-29T03:40:20.063Z,16.07
2018-06-29T03:41:19.875Z,16.08
2018-06-29T03:42:19.859Z,16.08
2018-06-29T03:43:20.428Z,15.97
2018-06-29T03:44:19.783Z,16.00
2018-06-29T03:45:19.758Z,15.94
2018-06-29T03:46:19.688Z,15.97
2018-06-29T03:47:19.671Z,16.00
2018-06-29T03:48:19.629Z,15.93
2018-06-29T03:49:19.601Z,15.87
2018-06-29T03:50:19.548Z,15.90
2018-06-29T03:51:19.503Z,15.87
2018-06-29T03:52:19.491Z,15.96
2018-06-29T03:53:19.426Z,15.94
2018-06-29T03:54:19.403Z,15.89
2018-06-29T03:55:19.375Z,15.86
2018-06-29T03:56:19.307Z,15.83
2018-06-29T03:57:19.269Z,15.83
2018-06-29T03:58:19.237Z,15.92
2018-06-29T03:59:19.200Z,15.87
2018-06-29T04:00:19.188Z,15.87
2018-06-29T04:01:19.114Z,15.84
2018-06-29T04:02:19.081Z,15.89
2018-06-29T04:03:31.348Z,15.93
2018-06-29T04:04:19.074Z,15.92
2018-06-29T04:05:19.022Z,16.02
2018-06-29T04:06:18.926Z,15.92
2018-06-29T04:07:18.911Z,16.02
2018-06-29T04:08:18.887Z,16.01
2018-06-29T04:09:18.827Z,16.08
2018-06-29T04:10:18.814Z,16.11
2018-06-29T04:11:18.726Z,16.25
2018-06-29T04:12:18.705Z,16.33
2018-06-29T04:13:18.665Z,16.38
2018-06-29T04:14:18.622Z,16.46
2018-06-29T04:15:18.605Z,16.45
2018-06-29T04:16:18.588Z,16.56
2018-06-29T04:17:18.494Z,16.67
2018-06-29T04:18:18.488Z,16.70
2018-06-29T04:19:18.413Z,16.76
2018-06-29T04:20:18.408Z,16.85
2018-06-29T04:21:18.350Z,16.94
2018-06-29T04:22:18.352Z,16.98
2018-06-29T04:23:18.291Z,17.00
2018-06-29T04:24:18.256Z,17.12
2018-06-29T04:25:18.216Z,17.01
2018-06-29T04:26:18.219Z,17.12
2018-06-29T04:27:29.036Z,17.11
2018-06-29T04:28:18.198Z,17.23
2018-06-29T04:29:18.054Z,17.16
2018-06-29T04:30:18.644Z,17.26
2018-06-29T04:31:18.000Z,17.33
2018-06-29T04:32:17.936Z,17.38
2018-06-29T04:33:17.900Z,17.70
2018-06-29T04:34:17.883Z,18.55
2018-06-29T04:35:17.832Z,19.58
2018-06-29T04:36:17.773Z,20.54
2018-06-29T04:37:17.788Z,21.43
2018-06-29T04:38:17.759Z,22.05
2018-06-29T04:39:17.703Z,22.79
2018-06-29T04:40:17.630Z,23.46
2018-06-29T04:41:17.607Z,23.69
2018-06-29T04:42:17.548Z,24.22
2018-06-29T04:43:17.538Z,24.27
2018-06-29T04:44:17.483Z,24.77
2018-06-29T04:45:17.446Z,25.20
2018-06-29T04:46:17.448Z,25.24
2018-06-29T04:47:17.379Z,25.35
2018-06-29T04:48:17.327Z,25.40
2018-06-29T04:49:17.311Z,25.65
2018-06-29T04:50:28.465Z,25.98
2018-06-29T04:51:17.226Z,25.83
2018-06-29T04:52:17.373Z,26.23
2018-06-29T04:53:18.158Z,26.45
2018-06-29T04:54:17.987Z,26.30
2018-06-29T04:55:17.938Z,26.73
2018-06-29T04:56:17.556Z,26.47
2018-06-29T04:57:17.038Z,26.26
2018-06-29T04:58:16.976Z,26.25
2018-06-29T04:59:16.936Z,26.58
2018-06-29T05:00:16.919Z,26.99
2018-06-29T05:01:28.006Z,27.21
2018-06-29T05:02:17.150Z,27.55
2018-06-29T05:03:16.931Z,27.65
2018-06-29T05:04:16.811Z,27.50
2018-06-29T05:05:17.215Z,28.00
2018-06-29T05:06:16.707Z,27.96
2018-06-29T05:07:16.721Z,28.36
2018-06-29T05:08:16.644Z,28.66
2018-06-29T05:09:16.619Z,28.83
2018-06-29T05:10:16.579Z,28.62
2018-06-29T05:11:16.574Z,28.64
2018-06-29T05:12:16.517Z,28.83
2018-06-29T05:13:16.557Z,28.93
2018-06-29T05:14:16.484Z,29.04
2018-06-29T05:15:27.748Z,28.90
2018-06-29T05:16:16.377Z,28.80
2018-06-29T05:17:16.351Z,28.71
2018-06-29T05:18:17.279Z,28.54
2018-06-29T05:19:17.065Z,28.98
2018-06-29T05:20:16.731Z,29.15
2018-06-29T05:21:16.222Z,29.28
2018-06-29T05:22:16.197Z,29.06
2018-06-29T05:23:26.887Z,28.74
2018-06-29T05:24:16.213Z,29.21
2018-06-29T05:25:16.875Z,29.16
2018-06-29T05:26:16.972Z,29.67
2018-06-29T05:27:16.977Z,29.51
2018-06-29T05:28:16.038Z,29.60
2018-06-29T05:29:15.984Z,29.43
2018-06-29T05:30:15.971Z,29.67
2018-06-29T05:31:16.678Z,29.64
2018-06-29T05:32:16.481Z,29.70
2018-06-29T05:33:16.309Z,29.33
2018-06-29T05:34:15.804Z,29.28
2018-06-29T05:35:15.790Z,29.49
2018-06-29T05:36:15.767Z,29.82
2018-06-29T05:37:15.721Z,29.85
2018-06-29T05:38:15.707Z,30.11
2018-06-29T05:39:15.648Z,29.74
2018-06-29T05:40:15.645Z,29.27
2018-06-29T05:41:15.615Z,29.76
2018-06-29T05:42:15.559Z,29.94
2018-06-29T05:43:15.564Z,30.24
2018-06-29T05:44:15.487Z,30.08
2018-06-29T05:45:15.505Z,30.02
2018-06-29T05:46:15.489Z,30.79
2018-06-29T05:47:15.391Z,30.64
2018-06-29T05:48:15.390Z,30.69
2018-06-29T05:49:15.405Z,30.61
2018-06-29T05:50:15.302Z,30.51
2018-06-29T05:51:15.269Z,30.45
2018-06-29T05:52:15.258Z,30.32
2018-06-29T05:53:15.220Z,30.37
2018-06-29T05:54:15.238Z,30.79
2018-06-29T05:55:15.170Z,30.62
2018-06-29T05:56:15.109Z,30.35
2018-06-29T05:57:15.093Z,30.76
2018-06-29T05:58:15.053Z,30.82
2018-06-29T05:59:15.060Z,30.47
2018-06-29T06:00:15.048Z,30.53
2018-06-29T06:01:14.987Z,30.54
2018-06-29T06:02:14.931Z,30.94
2018-06-29T06:03:14.906Z,31.04
2018-06-29T06:04:14.879Z,31.19
2018-06-29T06:05:14.847Z,30.84
2018-06-29T06:06:14.827Z,31.07
2018-06-29T06:07:14.782Z,31.02
2018-06-29T06:08:14.731Z,31.50
2018-06-29T06:09:14.740Z,32.15
2018-06-29T06:10:14.695Z,31.68
2018-06-29T06:11:14.658Z,31.14
2018-06-29T06:12:14.640Z,31.32
2018-06-29T06:13:14.698Z,31.81
2018-06-29T06:14:14.577Z,31.23
2018-06-29T06:15:14.575Z,30.89
2018-06-29T06:16:14.539Z,30.89
2018-06-29T06:17:14.493Z,30.67
2018-06-29T06:18:14.430Z,29.76
2018-06-29T06:19:14.418Z,30.11
2018-06-29T06:20:14.418Z,30.32
2018-06-29T06:21:14.364Z,30.79
2018-06-29T06:22:14.328Z,31.07
2018-06-29T06:23:14.286Z,31.50
2018-06-29T06:24:14.282Z,32.40
2018-06-29T06:25:14.231Z,32.33
2018-06-29T06:26:14.249Z,32.00
2018-06-29T06:27:25.111Z,31.35
2018-06-29T06:28:14.163Z,32.03
2018-06-29T06:29:14.248Z,32.10
2018-06-29T06:30:14.832Z,32.04
2018-06-29T06:31:14.079Z,32.48
2018-06-29T06:32:14.011Z,32.72
2018-06-29T06:33:14.064Z,32.92
2018-06-29T06:34:13.959Z,33.09
2018-06-29T06:35:13.934Z,32.75
2018-06-29T06:36:13.903Z,32.56
2018-06-29T06:37:13.928Z,32.63
2018-06-29T06:38:13.845Z,32.06
2018-06-29T06:39:13.812Z,31.72
2018-06-29T06:40:13.811Z,31.85
2018-06-29T06:41:13.755Z,31.41
2018-06-29T06:42:13.769Z,30.83
2018-06-29T06:43:13.719Z,31.51
2018-06-29T06:44:13.668Z,30.89
2018-06-29T06:45:13.676Z,30.60
2018-06-29T06:46:13.617Z,31.32
2018-06-29T06:47:13.584Z,31.34
2018-06-29T06:48:13.566Z,31.26
2018-06-29T06:49:13.509Z,31.38
2018-06-29T06:50:13.502Z,31.76
2018-06-29T06:51:24.170Z,32.19
2018-06-29T06:52:13.449Z,32.96
2018-06-29T06:53:13.396Z,33.93
2018-06-29T06:54:13.363Z,34.46
2018-06-29T06:55:13.331Z,34.28
2018-06-29T06:56:13.303Z,34.32
2018-06-29T06:57:13.303Z,34.32
2018-06-29T06:58:13.267Z,33.78
2018-06-29T06:59:14.119Z,32.65
2018-06-29T07:00:14.083Z,32.89
2018-06-29T07:01:14.157Z,32.77
2018-06-29T07:02:13.148Z,33.11
2018-06-29T07:03:14.101Z,33.26
2018-06-29T07:04:13.987Z,33.45
2018-06-29T07:05:13.811Z,33.50
2018-06-29T07:06:13.553Z,33.09
2018-06-29T07:07:12.989Z,32.94
2018-06-29T07:08:12.994Z,33.07
2018-06-29T07:09:12.921Z,33.56
2018-06-29T07:10:12.902Z,32.89
2018-06-29T07:11:12.864Z,33.28
2018-06-29T07:12:12.847Z,32.67
2018-06-29T07:13:12.817Z,32.30
2018-06-29T07:14:12.811Z,32.45
2018-06-29T07:15:12.754Z,32.97
2018-06-29T07:16:12.724Z,32.82
2018-06-29T07:17:12.689Z,33.28
2018-06-29T07:18:12.701Z,32.88
2018-06-29T07:19:12.675Z,32.89
2018-06-29T07:20:12.622Z,32.74
2018-06-29T07:21:12.579Z,31.80
2018-06-29T07:22:12.577Z,31.84
2018-06-29T07:23:12.538Z,32.63
2018-06-29T07:24:12.523Z,32.70
2018-06-29T07:25:12.470Z,33.00
2018-06-29T07:26:12.448Z,33.01
2018-06-29T07:27:12.410Z,32.84
2018-06-29T07:28:12.392Z,32.99
2018-06-29T07:29:12.363Z,33.29
2018-06-29T07:30:12.341Z,34.02
2018-06-29T07:31:12.315Z,33.06
2018-06-29T07:32:12.263Z,33.53
2018-06-29T07:33:12.254Z,33.82
2018-06-29T07:34:12.206Z,33.93
2018-06-29T07:35:12.213Z,33.75
2018-06-29T07:36:12.144Z,33.90
2018-06-29T07:37:12.108Z,34.05
2018-06-29T07:38:12.101Z,33.45
2018-06-29T07:39:12.069Z,32.72
2018-06-29T07:40:12.043Z,32.45
2018-06-29T07:41:12.015Z,31.81
2018-06-29T07:42:12.009Z,32.22
2018-06-29T07:43:11.930Z,32.13
2018-06-29T07:44:12.458Z,31.99
2018-06-29T07:45:11.923Z,32.07
2018-06-29T07:46:11.875Z,32.04
2018-06-29T07:47:11.878Z,32.18
2018-06-29T07:48:11.793Z,32.23
2018-06-29T07:49:11.775Z,32.10
2018-06-29T07:50:11.743Z,32.48
2018-06-29T07:51:11.739Z,32.93
2018-06-29T07:52:11.703Z,32.51
2018-06-29T07:53:11.652Z,32.89
2018-06-29T07:54:11.635Z,32.81
2018-06-29T07:55:11.623Z,32.55
2018-06-29T07:56:11.617Z,32.07
2018-06-29T07:57:11.561Z,32.28
2018-06-29T07:58:11.597Z,32.03
2018-06-29T07:59:11.482Z,32.21
2018-06-29T08:00:11.468Z,31.65
2018-06-29T08:01:21.952Z,31.85
2018-06-29T08:02:12.141Z,31.75
2018-06-29T08:03:12.108Z,30.82
2018-06-29T08:04:11.406Z,30.82
2018-06-29T08:05:11.332Z,30.79
2018-06-29T08:06:12.165Z,30.97
2018-06-29T08:07:12.066Z,31.26
2018-06-29T08:08:11.842Z,31.04
2018-06-29T08:09:11.225Z,31.39
2018-06-29T08:10:11.175Z,31.63
2018-06-29T08:11:11.152Z,31.63
2018-06-29T08:12:11.165Z,31.85
2018-06-29T08:13:11.103Z,32.01
2018-06-29T08:14:11.085Z,32.06
2018-06-29T08:15:11.068Z,32.00
2018-06-29T08:16:11.044Z,31.99
2018-06-29T08:17:11.032Z,32.43
2018-06-29T08:18:10.970Z,32.26
2018-06-29T08:19:10.945Z,32.23
2018-06-29T08:20:10.897Z,32.29
2018-06-29T08:21:10.905Z,31.86
2018-06-29T08:22:10.875Z,31.57
2018-06-29T08:23:10.866Z,31.63
2018-06-29T08:24:10.784Z,31.16
2018-06-29T08:25:10.783Z,31.10
2018-06-29T08:26:10.753Z,31.43
2018-06-29T08:27:10.718Z,31.20
2018-06-29T08:28:10.720Z,30.82
2018-06-29T08:29:10.656Z,30.39
2018-06-29T08:30:10.643Z,30.24
2018-06-29T08:31:10.599Z,30.22
2018-06-29T08:32:10.574Z,29.61
2018-06-29T08:33:10.617Z,29.95
2018-06-29T08:34:10.542Z,30.13
2018-06-29T08:35:10.497Z,30.32
2018-06-29T08:36:10.483Z,30.01
2018-06-29T08:37:10.443Z,30.19
2018-06-29T08:38:10.424Z,29.89
2018-06-29T08:39:10.372Z,29.64
2018-06-29T08:40:10.403Z,29.70
2018-06-29T08:41:10.321Z,29.76
2018-06-29T08:42:10.297Z,29.73
2018-06-29T08:43:10.288Z,29.73
2018-06-29T08:44:10.268Z,29.27
2018-06-29T08:45:10.249Z,28.93
2018-06-29T08:46:10.179Z,29.15
2018-06-29T08:47:10.312Z,29.28
2018-06-29T08:48:10.140Z,29.89
2018-06-29T08:49:10.129Z,29.97
2018-06-29T08:50:10.053Z,29.95
2018-06-29T08:51:10.032Z,30.24
2018-06-29T08:52:10.046Z,30.38
2018-06-29T08:53:09.990Z,30.61
2018-06-29T08:54:09.968Z,30.83
2018-06-29T08:55:10.032Z,30.60
2018-06-29T08:56:09.921Z,30.55
2018-06-29T08:57:09.887Z,30.24
2018-06-29T08:58:09.835Z,30.15
2018-06-29T08:59:09.852Z,29.95
2018-06-29T09:00:09.828Z,29.52
2018-06-29T09:01:09.785Z,29.78
2018-06-29T09:02:09.761Z,29.64
2018-06-29T09:03:09.689Z,29.90
2018-06-29T09:04:09.719Z,29.53
2018-06-29T09:05:09.657Z,29.74
2018-06-29T09:06:09.612Z,30.07
2018-06-29T09:07:09.614Z,29.90
2018-06-29T09:08:09.565Z,30.19
2018-06-29T09:09:09.542Z,30.07
2018-06-29T09:10:09.551Z,30.26
2018-06-29T09:11:09.491Z,30.20
2018-06-29T09:12:09.447Z,30.34
2018-06-29T09:13:09.439Z,30.84
2018-06-29T09:14:09.403Z,29.97
2018-06-29T09:15:09.408Z,30.38
2018-06-29T09:16:09.358Z,29.90
2018-06-29T09:17:09.313Z,30.26
2018-06-29T09:18:09.289Z,30.37
2018-06-29T09:19:09.312Z,30.57
2018-06-29T09:20:09.256Z,30.94
2018-06-29T09:21:09.206Z,31.17
2018-06-29T09:22:09.159Z,31.16
2018-06-29T09:23:09.162Z,31.06
2018-06-29T09:24:09.124Z,31.10
2018-06-29T09:25:09.086Z,30.95
2018-06-29T09:26:09.084Z,30.99
2018-06-29T09:27:09.048Z,30.86
2018-06-29T09:28:09.015Z,30.83
2018-06-29T09:29:08.983Z,30.92
2018-06-29T09:30:08.989Z,30.65
2018-06-29T09:31:08.954Z,30.69
2018-06-29T09:32:08.900Z,30.51
2018-06-29T09:33:08.876Z,30.17
2018-06-29T09:34:08.832Z,30.27
2018-06-29T09:35:08.801Z,30.08
2018-06-29T09:36:08.834Z,30.51
2018-06-29T09:37:20.099Z,30.91
2018-06-29T09:38:08.739Z,30.88
2018-06-29T09:39:09.495Z,31.10
2018-06-29T09:40:09.457Z,31.26
2018-06-29T09:41:09.489Z,31.48
2018-06-29T09:42:08.729Z,31.34
2018-06-29T09:43:08.633Z,30.79
2018-06-29T09:44:09.331Z,30.99
2018-06-29T09:45:09.451Z,31.20
2018-06-29T09:46:09.376Z,31.29
2018-06-29T09:47:08.528Z,31.12
2018-06-29T09:48:09.416Z,30.83
2018-06-29T09:49:09.341Z,30.86
2018-06-29T09:50:09.310Z,30.62
2018-06-29T09:51:09.270Z,30.26
2018-06-29T09:52:09.130Z,30.08
2018-06-29T09:53:09.034Z,30.20
2018-06-29T09:54:08.367Z,30.91
2018-06-29T09:55:08.265Z,30.84
2018-06-29T09:56:08.280Z,30.37
2018-06-29T09:57:08.296Z,30.37
2018-06-29T09:58:08.211Z,30.57
2018-06-29T09:59:08.194Z,30.58
2018-06-29T10:00:08.162Z,30.70
2018-06-29T10:01:08.172Z,30.70
2018-06-29T10:02:08.116Z,30.82
2018-06-29T10:03:08.096Z,30.97
2018-06-29T10:04:08.067Z,30.86
2018-06-29T10:05:08.065Z,30.65
2018-06-29T10:06:07.990Z,29.94
2018-06-29T10:07:07.972Z,30.00
2018-06-29T10:08:07.973Z,30.20
2018-06-29T10:09:07.938Z,29.80
2018-06-29T10:10:07.910Z,29.90
2018-06-29T10:11:07.864Z,29.90
2018-06-29T10:12:07.847Z,30.05
2018-06-29T10:13:07.846Z,30.24
2018-06-29T10:14:07.803Z,30.26
2018-06-29T10:15:07.763Z,30.10
2018-06-29T10:16:07.738Z,29.78
2018-06-29T10:17:07.713Z,30.15
2018-06-29T10:18:07.714Z,30.20
2018-06-29T10:19:07.650Z,30.57
2018-06-29T10:20:07.793Z,30.22
2018-06-29T10:21:07.610Z,30.07
2018-06-29T10:22:07.647Z,29.58
2018-06-29T10:23:07.582Z,29.31
2018-06-29T10:24:07.611Z,29.19
2018-06-29T10:25:07.521Z,28.93
2018-06-29T10:26:07.479Z,29.28
2018-06-29T10:27:07.453Z,29.57
2018-06-29T10:28:07.526Z,29.85
2018-06-29T10:29:07.398Z,29.65
2018-06-29T10:30:07.362Z,29.67
2018-06-29T10:31:07.340Z,29.87
2018-06-29T10:32:07.315Z,29.48
2018-06-29T10:33:07.317Z,29.34
2018-06-29T10:34:07.270Z,29.04
2018-06-29T10:35:07.244Z,29.51
2018-06-29T10:36:07.299Z,29.86
2018-06-29T10:37:07.187Z,30.29
2018-06-29T10:38:07.171Z,30.46
2018-06-29T10:39:07.154Z,30.84
2018-06-29T10:40:07.095Z,30.84
2018-06-29T10:41:07.086Z,31.01
2018-06-29T10:42:07.061Z,30.98
2018-06-29T10:43:07.054Z,31.04
2018-06-29T10:44:06.972Z,30.89
2018-06-29T10:45:06.955Z,30.94
2018-06-29T10:46:06.934Z,31.07
2018-06-29T10:47:06.894Z,30.99
2018-06-29T10:48:06.920Z,31.28
2018-06-29T10:49:18.048Z,31.25
2018-06-29T10:50:06.898Z,31.06
2018-06-29T10:51:06.790Z,30.97
2018-06-29T10:52:06.811Z,30.88
2018-06-29T10:53:07.507Z,30.43
2018-06-29T10:54:07.686Z,30.46
2018-06-29T10:55:07.503Z,30.34
2018-06-29T10:56:07.555Z,30.62
2018-06-29T10:57:07.527Z,30.80
2018-06-29T10:58:06.681Z,30.46
2018-06-29T10:59:07.411Z,30.04
2018-06-29T11:00:07.451Z,29.86
2018-06-29T11:01:07.357Z,30.07
2018-06-29T11:02:07.389Z,30.00
2018-06-29T11:03:07.120Z,30.07
2018-06-29T11:04:07.333Z,29.78
2018-06-29T11:05:07.422Z,29.95
2018-06-29T11:06:07.314Z,30.23
2018-06-29T11:07:06.390Z,30.05
2018-06-29T11:08:06.358Z,29.55
2018-06-29T11:09:06.343Z,29.42
2018-06-29T11:10:06.304Z,29.53
2018-06-29T11:11:06.296Z,29.83
2018-06-29T11:12:17.055Z,30.19
2018-06-29T11:13:06.310Z,30.39
2018-06-29T11:14:07.113Z,30.65
2018-06-29T11:15:06.916Z,30.94
2018-06-29T11:16:07.077Z,30.99
2018-06-29T11:17:06.152Z,30.60
2018-06-29T11:18:06.124Z,30.64
2018-06-29T11:19:06.126Z,30.58
2018-06-29T11:20:07.048Z,30.62
2018-06-29T11:21:06.875Z,30.57
2018-06-29T11:22:07.069Z,30.61
2018-06-29T11:23:08.339Z,30.64
2018-06-29T11:24:06.898Z,30.11
2018-06-29T11:25:06.723Z,29.70
2018-06-29T11:26:06.756Z,29.83
2018-06-29T11:27:06.927Z,29.95
2018-06-29T11:28:06.716Z,29.97
2018-06-29T11:29:06.678Z,30.07
2018-06-29T11:30:06.813Z,30.34
2018-06-29T11:31:05.785Z,30.31
2018-06-29T11:32:06.704Z,30.54
2018-06-29T11:33:06.634Z,30.61
2018-06-29T11:34:06.592Z,30.65
2018-06-29T11:35:06.496Z,30.62
2018-06-29T11:36:06.518Z,30.82
2018-06-29T11:37:17.144Z,30.55
2018-06-29T11:38:05.942Z,30.24
2018-06-29T11:39:08.668Z,30.04
2018-06-29T11:40:08.167Z,29.86
2018-06-29T11:41:06.481Z,29.89
2018-06-29T11:42:06.580Z,29.90
2018-06-29T11:43:05.506Z,30.00
2018-06-29T11:44:06.359Z,30.15
2018-06-29T11:45:06.207Z,30.39
2018-06-29T11:46:08.173Z,30.35
2018-06-29T11:47:08.173Z,30.61
2018-06-29T11:48:07.167Z,30.62
2018-06-29T11:49:06.251Z,30.24
2018-06-29T11:50:06.222Z,29.94
2018-06-29T11:51:06.176Z,29.63
2018-06-29T11:52:06.116Z,29.31
2018-06-29T11:53:05.271Z,29.09
2018-06-29T11:54:05.248Z,29.26
2018-06-29T11:55:05.175Z,29.42
2018-06-29T11:56:06.106Z,29.23
2018-06-29T11:57:05.103Z,29.26
2018-06-29T11:58:05.061Z,29.48
2018-06-29T11:59:05.056Z,29.19
2018-06-29T12:00:05.007Z,29.00
2018-06-29T12:01:05.017Z,29.02
2018-06-29T12:02:04.968Z,29.31
2018-06-29T12:03:04.927Z,29.31
2018-06-29T12:04:04.898Z,29.60
2018-06-29T12:05:04.877Z,29.85
2018-06-29T12:06:04.902Z,30.07
2018-06-29T12:07:04.852Z,30.17
2018-06-29T12:08:04.792Z,30.43
2018-06-29T12:09:04.777Z,30.32
2018-06-29T12:10:04.797Z,30.38
2018-06-29T12:11:04.740Z,30.54
2018-06-29T12:12:04.696Z,30.47
2018-06-29T12:13:04.681Z,30.16
2018-06-29T12:14:04.652Z,29.90
2018-06-29T12:15:16.611Z,29.71
2018-06-29T12:16:05.559Z,29.49
2018-06-29T12:17:05.454Z,29.42
2018-06-29T12:18:04.615Z,29.37
2018-06-29T12:19:04.539Z,29.27
2018-06-29T12:20:05.217Z,29.43
2018-06-29T12:21:05.167Z,29.51
2018-06-29T12:22:04.433Z,29.34
2018-06-29T12:23:04.396Z,29.61
2018-06-29T12:24:04.361Z,29.83
2018-06-29T12:25:04.352Z,30.05
2018-06-29T12:26:04.347Z,30.22
2018-06-29T12:27:04.321Z,30.27
2018-06-29T12:28:04.290Z,30.37
2018-06-29T12:29:04.224Z,30.37
2018-06-29T12:30:04.234Z,30.42
2018-06-29T12:31:04.243Z,30.37
2018-06-29T12:32:04.145Z,30.37
2018-06-29T12:33:04.134Z,30.34
2018-06-29T12:34:04.162Z,30.35
2018-06-29T12:35:04.108Z,30.37
2018-06-29T12:36:04.055Z,30.23
2018-06-29T12:37:04.025Z,30.10
2018-06-29T12:38:04.067Z,29.98
2018-06-29T12:39:03.985Z,30.01
2018-06-29T12:40:03.967Z,30.02
2018-06-29T12:41:03.945Z,30.00
2018-06-29T12:42:03.900Z,30.02
2018-06-29T12:43:03.889Z,30.13
2018-06-29T12:44:03.844Z,30.11
2018-06-29T12:45:03.852Z,29.98
2018-06-29T12:46:03.768Z,30.08
2018-06-29T12:47:03.750Z,30.07
2018-06-29T12:48:15.753Z,29.92
2018-06-29T12:49:04.746Z,29.71
2018-06-29T12:50:04.560Z,29.55
2018-06-29T12:51:03.725Z,29.53
2018-06-29T12:52:04.485Z,29.55